sensor_id;sensor_type;location;lat;lon;timestamp;temperature;humidity
45329;DHT22;72636;48.160;11.428;2024-03-06T00:02:08;7.20;99.90
45329;DHT22;72636;48.160;11.428;2024-03-06T00:04:34;7.20;99.90
45329;DHT22;72636;48.160;11.428;2024-03-06T00:07:00;7.20;99.90
45329;DHT22;72636;48.160;11.428;2024-03-06T00:09:26;7.20;99.90
45329;DHT22;72636;48.160;11.428;2024-03-06T00:11:55;7.20;99.90
45329;DHT22;72636;48.160;11.428;2024-03-06T00:14:22;7.20;99.90
45329;DHT22;72636;48.160;11.428;2024-03-06T00:16:49;7.20;99.90
45329;DHT22;72636;48.160;11.428;2024-03-06T00:19:18;7.70;99.90
45329;DHT22;72636;48.160;11.428;2024-03-06T00:21:44;7.10;99.90
45329;DHT22;72636;48.160;11.428;2024-03-06T00:24:12;7.20;99.90
45329;DHT22;72636;48.160;11.428;2024-03-06T00:26:40;7.10;99.90
45329;DHT22;72636;48.160;11.428;2024-03-06T00:29:06;7.10;99.90
45329;DHT22;72636;48.160;11.428;2024-03-06T00:31:32;7.10;99.90
45329;DHT22;72636;48.160;11.428;2024-03-06T00:33:57;7.20;99.90
45329;DHT22;72636;48.160;11.428;2024-03-06T00:36:23;7.20;99.90
45329;DHT22;72636;48.160;11.428;2024-03-06T00:38:49;7.20;99.90
45329;DHT22;72636;48.160;11.428;2024-03-06T00:41:14;7.20;99.90
45329;DHT22;72636;48.160;11.428;2024-03-06T00:43:40;7.20;99.90
45329;DHT22;72636;48.160;11.428;2024-03-06T00:46:06;7.20;99.90
45329;DHT22;72636;48.160;11.428;2024-03-06T00:48:31;7.20;99.90
45329;DHT22;72636;48.160;11.428;2024-03-06T00:50:57;7.20;99.90
45329;DHT22;72636;48.160;11.428;2024-03-06T00:53:22;7.20;99.90
45329;DHT22;72636;48.160;11.428;2024-03-06T00:55:49;7.10;99.90
45329;DHT22;72636;48.160;11.428;2024-03-06T00:58:15;7.10;99.90
45329;DHT22;72636;48.160;11.428;2024-03-06T01:00:41;7.10;99.90
45329;DHT22;72636;48.160;11.428;2024-03-06T01:03:06;7.10;99.90
45329;DHT22;72636;48.160;11.428;2024-03-06T01:05:32;7.10;99.90
45329;DHT22;72636;48.160;11.428;2024-03-06T01:07:58;7.10;99.90
45329;DHT22;72636;48.160;11.428;2024-03-06T01:10:24;7.10;99.90
45329;DHT22;72636;48.160;11.428;2024-03-06T01:12:50;7.10;99.90
45329;DHT22;72636;48.160;11.428;2024-03-06T01:15:16;7.10;99.90
45329;DHT22;72636;48.160;11.428;2024-03-06T01:17:42;7.10;99.90
45329;DHT22;72636;48.160;11.428;2024-03-06T01:20:08;7.10;99.90
45329;DHT22;72636;48.160;11.428;2024-03-06T01:22:34;7.10;99.90
45329;DHT22;72636;48.160;11.428;2024-03-06T01:25:00;7.10;99.90
45329;DHT22;72636;48.160;11.428;2024-03-06T01:27:26;7.10;99.90
45329;DHT22;72636;48.160;11.428;2024-03-06T01:29:52;7.10;99.90
45329;DHT22;72636;48.160;11.428;2024-03-06T01:32:17;7.10;99.90
45329;DHT22;72636;48.160;11.428;2024-03-06T01:34:43;7.10;99.90
45329;DHT22;72636;48.160;11.428;2024-03-06T01:37:09;7.10;99.90
45329;DHT22;72636;48.160;11.428;2024-03-06T01:39:34;7.10;99.90
45329;DHT22;72636;48.160;11.428;2024-03-06T01:42:02;7.10;99.90
45329;DHT22;72636;48.160;11.428;2024-03-06T01:44:28;7.10;99.90
45329;DHT22;72636;48.160;11.428;2024-03-06T01:46:54;7.10;99.90
45329;DHT22;72636;48.160;11.428;2024-03-06T01:49:21;7.10;99.90
45329;DHT22;72636;48.160;11.428;2024-03-06T01:51:56;7.10;99.90
45329;DHT22;72636;48.160;11.428;2024-03-06T01:54:23;7.10;99.90
45329;DHT22;72636;48.160;11.428;2024-03-06T01:56:49;7.10;99.90
45329;DHT22;72636;48.160;11.428;2024-03-06T01:59:20;7.10;99.90
45329;DHT22;72636;48.160;11.428;2024-03-06T02:01:46;7.10;99.90
45329;DHT22;72636;48.160;11.428;2024-03-06T02:04:13;7.10;99.90
45329;DHT22;72636;48.160;11.428;2024-03-06T02:06:39;7.10;99.90
45329;DHT22;72636;48.160;11.428;2024-03-06T02:09:05;7.10;99.90
45329;DHT22;72636;48.160;11.428;2024-03-06T02:11:32;7.10;99.90
45329;DHT22;72636;48.160;11.428;2024-03-06T02:13:58;7.10;99.90
45329;DHT22;72636;48.160;11.428;2024-03-06T02:16:24;7.10;99.90
45329;DHT22;72636;48.160;11.428;2024-03-06T02:18:53;7.10;99.90
45329;DHT22;72636;48.160;11.428;2024-03-06T02:21:23;7.10;99.90
45329;DHT22;72636;48.160;11.428;2024-03-06T02:23:49;7.10;99.90
45329;DHT22;72636;48.160;11.428;2024-03-06T02:26:19;7.10;99.90
45329;DHT22;72636;48.160;11.428;2024-03-06T02:28:49;7.10;99.90
45329;DHT22;72636;48.160;11.428;2024-03-06T02:31:16;7.10;99.90
45329;DHT22;72636;48.160;11.428;2024-03-06T02:33:43;7.10;99.90
45329;DHT22;72636;48.160;11.428;2024-03-06T02:36:13;7.10;99.90
45329;DHT22;72636;48.160;11.428;2024-03-06T02:38:39;7.10;99.90
45329;DHT22;72636;48.160;11.428;2024-03-06T02:41:05;7.10;99.90
45329;DHT22;72636;48.160;11.428;2024-03-06T02:43:33;7.10;99.90
45329;DHT22;72636;48.160;11.428;2024-03-06T02:45:58;7.10;99.90
45329;DHT22;72636;48.160;11.428;2024-03-06T02:48:24;7.10;99.90
45329;DHT22;72636;48.160;11.428;2024-03-06T02:50:50;7.10;99.90
45329;DHT22;72636;48.160;11.428;2024-03-06T02:53:15;7.10;99.90
45329;DHT22;72636;48.160;11.428;2024-03-06T02:55:41;7.10;99.90
45329;DHT22;72636;48.160;11.428;2024-03-06T02:58:07;7.10;99.90
45329;DHT22;72636;48.160;11.428;2024-03-06T03:00:32;7.10;99.90
45329;DHT22;72636;48.160;11.428;2024-03-06T03:02:58;7.10;99.90
45329;DHT22;72636;48.160;11.428;2024-03-06T03:05:24;7.10;99.90
45329;DHT22;72636;48.160;11.428;2024-03-06T03:07:50;7.10;99.90
45329;DHT22;72636;48.160;11.428;2024-03-06T03:10:16;7.10;99.90
45329;DHT22;72636;48.160;11.428;2024-03-06T03:12:42;7.10;99.90
45329;DHT22;72636;48.160;11.428;2024-03-06T03:15:08;7.10;99.90
45329;DHT22;72636;48.160;11.428;2024-03-06T03:17:34;7.10;99.90
45329;DHT22;72636;48.160;11.428;2024-03-06T03:20:00;7.10;99.90
45329;DHT22;72636;48.160;11.428;2024-03-06T03:22:39;7.20;99.90
45329;DHT22;72636;48.160;11.428;2024-03-06T03:25:08;7.10;99.90
45329;DHT22;72636;48.160;11.428;2024-03-06T03:27:36;7.10;99.90
45329;DHT22;72636;48.160;11.428;2024-03-06T03:30:02;7.10;99.90
45329;DHT22;72636;48.160;11.428;2024-03-06T03:32:28;7.10;99.90
45329;DHT22;72636;48.160;11.428;2024-03-06T03:34:54;7.10;99.90
45329;DHT22;72636;48.160;11.428;2024-03-06T03:37:19;7.20;99.90
45329;DHT22;72636;48.160;11.428;2024-03-06T03:39:45;7.20;99.90
45329;DHT22;72636;48.160;11.428;2024-03-06T03:42:11;7.20;99.90
45329;DHT22;72636;48.160;11.428;2024-03-06T03:44:37;7.20;99.90
45329;DHT22;72636;48.160;11.428;2024-03-06T03:47:02;7.20;99.90
45329;DHT22;72636;48.160;11.428;2024-03-06T03:49:28;7.20;99.90
45329;DHT22;72636;48.160;11.428;2024-03-06T03:51:54;7.20;99.90
45329;DHT22;72636;48.160;11.428;2024-03-06T03:54:19;7.20;99.90
45329;DHT22;72636;48.160;11.428;2024-03-06T03:56:45;7.10;99.90
45329;DHT22;72636;48.160;11.428;2024-03-06T03:59:11;7.20;99.90
45329;DHT22;72636;48.160;11.428;2024-03-06T04:01:36;7.10;99.90
45329;DHT22;72636;48.160;11.428;2024-03-06T04:04:02;7.10;99.90
45329;DHT22;72636;48.160;11.428;2024-03-06T04:06:28;7.10;99.90
45329;DHT22;72636;48.160;11.428;2024-03-06T04:08:53;7.10;99.90
45329;DHT22;72636;48.160;11.428;2024-03-06T04:11:19;7.10;99.90
45329;DHT22;72636;48.160;11.428;2024-03-06T04:13:45;7.10;99.90
45329;DHT22;72636;48.160;11.428;2024-03-06T04:16:16;7.10;99.90
45329;DHT22;72636;48.160;11.428;2024-03-06T04:18:42;7.10;99.90
45329;DHT22;72636;48.160;11.428;2024-03-06T04:21:08;7.10;99.90
45329;DHT22;72636;48.160;11.428;2024-03-06T04:23:35;7.10;99.90
45329;DHT22;72636;48.160;11.428;2024-03-06T04:26:02;7.10;99.90
45329;DHT22;72636;48.160;11.428;2024-03-06T04:28:29;7.10;99.90
45329;DHT22;72636;48.160;11.428;2024-03-06T04:30:55;7.10;99.90
45329;DHT22;72636;48.160;11.428;2024-03-06T04:33:21;7.10;99.90
45329;DHT22;72636;48.160;11.428;2024-03-06T04:35:46;7.10;99.90
45329;DHT22;72636;48.160;11.428;2024-03-06T04:38:12;7.10;99.90
45329;DHT22;72636;48.160;11.428;2024-03-06T04:40:39;7.20;99.90
45329;DHT22;72636;48.160;11.428;2024-03-06T04:43:04;7.10;99.90
45329;DHT22;72636;48.160;11.428;2024-03-06T04:45:30;7.20;99.90
45329;DHT22;72636;48.160;11.428;2024-03-06T04:47:56;7.20;99.90
45329;DHT22;72636;48.160;11.428;2024-03-06T04:50:21;7.20;99.90
45329;DHT22;72636;48.160;11.428;2024-03-06T04:52:47;7.20;99.90
45329;DHT22;72636;48.160;11.428;2024-03-06T04:55:13;7.20;99.90
45329;DHT22;72636;48.160;11.428;2024-03-06T04:57:43;7.20;99.90
45329;DHT22;72636;48.160;11.428;2024-03-06T05:00:09;7.20;99.90
45329;DHT22;72636;48.160;11.428;2024-03-06T05:02:35;7.20;99.90
45329;DHT22;72636;48.160;11.428;2024-03-06T05:05:03;7.20;99.90
45329;DHT22;72636;48.160;11.428;2024-03-06T05:07:29;7.20;99.90
45329;DHT22;72636;48.160;11.428;2024-03-06T05:09:55;7.20;99.90
45329;DHT22;72636;48.160;11.428;2024-03-06T05:12:23;7.20;99.90
45329;DHT22;72636;48.160;11.428;2024-03-06T05:14:49;7.20;99.90
45329;DHT22;72636;48.160;11.428;2024-03-06T05:17:14;7.20;99.90
45329;DHT22;72636;48.160;11.428;2024-03-06T05:19:40;7.20;99.90
45329;DHT22;72636;48.160;11.428;2024-03-06T05:22:05;7.20;99.90
45329;DHT22;72636;48.160;11.428;2024-03-06T05:24:31;7.20;99.90
45329;DHT22;72636;48.160;11.428;2024-03-06T05:26:57;7.20;99.90
45329;DHT22;72636;48.160;11.428;2024-03-06T05:29:22;7.20;99.90
45329;DHT22;72636;48.160;11.428;2024-03-06T05:31:48;7.20;99.90
45329;DHT22;72636;48.160;11.428;2024-03-06T05:34:14;7.20;99.90
45329;DHT22;72636;48.160;11.428;2024-03-06T05:36:39;7.20;99.90
45329;DHT22;72636;48.160;11.428;2024-03-06T05:39:05;7.20;99.90
45329;DHT22;72636;48.160;11.428;2024-03-06T05:41:33;7.20;99.90
45329;DHT22;72636;48.160;11.428;2024-03-06T05:43:58;7.20;99.90
45329;DHT22;72636;48.160;11.428;2024-03-06T05:46:24;7.20;99.90
45329;DHT22;72636;48.160;11.428;2024-03-06T05:48:50;7.20;99.90
45329;DHT22;72636;48.160;11.428;2024-03-06T05:51:17;7.20;99.90
45329;DHT22;72636;48.160;11.428;2024-03-06T05:53:43;7.30;99.90
45329;DHT22;72636;48.160;11.428;2024-03-06T05:56:09;7.20;99.90
45329;DHT22;72636;48.160;11.428;2024-03-06T05:58:35;7.20;99.90
45329;DHT22;72636;48.160;11.428;2024-03-06T06:01:02;7.20;99.90
45329;DHT22;72636;48.160;11.428;2024-03-06T06:03:29;7.20;99.90
45329;DHT22;72636;48.160;11.428;2024-03-06T06:05:55;7.20;99.90
45329;DHT22;72636;48.160;11.428;2024-03-06T06:08:21;7.10;99.90
45329;DHT22;72636;48.160;11.428;2024-03-06T06:10:46;7.10;99.90
45329;DHT22;72636;48.160;11.428;2024-03-06T06:13:12;7.10;99.90
45329;DHT22;72636;48.160;11.428;2024-03-06T06:15:38;7.10;99.90
45329;DHT22;72636;48.160;11.428;2024-03-06T06:18:04;7.10;99.90
45329;DHT22;72636;48.160;11.428;2024-03-06T06:20:30;7.00;99.90
45329;DHT22;72636;48.160;11.428;2024-03-06T06:22:55;6.90;99.90
45329;DHT22;72636;48.160;11.428;2024-03-06T06:25:22;6.80;99.90
45329;DHT22;72636;48.160;11.428;2024-03-06T06:27:48;6.80;99.90
45329;DHT22;72636;48.160;11.428;2024-03-06T06:30:15;6.80;99.90
45329;DHT22;72636;48.160;11.428;2024-03-06T06:32:42;6.70;99.90
45329;DHT22;72636;48.160;11.428;2024-03-06T06:35:08;6.70;99.90
45329;DHT22;72636;48.160;11.428;2024-03-06T06:37:35;6.70;99.90
45329;DHT22;72636;48.160;11.428;2024-03-06T06:40:00;6.60;99.90
45329;DHT22;72636;48.160;11.428;2024-03-06T06:42:32;6.60;99.90
45329;DHT22;72636;48.160;11.428;2024-03-06T06:44:58;6.60;99.90
45329;DHT22;72636;48.160;11.428;2024-03-06T06:47:24;6.60;99.90
45329;DHT22;72636;48.160;11.428;2024-03-06T06:49:50;6.50;99.90
45329;DHT22;72636;48.160;11.428;2024-03-06T06:52:15;6.50;99.90
45329;DHT22;72636;48.160;11.428;2024-03-06T06:54:41;6.50;99.90
45329;DHT22;72636;48.160;11.428;2024-03-06T06:57:07;6.40;99.90
45329;DHT22;72636;48.160;11.428;2024-03-06T06:59:33;6.50;99.90
45329;DHT22;72636;48.160;11.428;2024-03-06T07:02:00;6.50;99.90
45329;DHT22;72636;48.160;11.428;2024-03-06T07:04:26;6.40;99.90
45329;DHT22;72636;48.160;11.428;2024-03-06T07:06:51;6.40;99.90
45329;DHT22;72636;48.160;11.428;2024-03-06T07:09:17;6.40;99.90
45329;DHT22;72636;48.160;11.428;2024-03-06T07:11:43;6.40;99.90
45329;DHT22;72636;48.160;11.428;2024-03-06T07:14:12;6.40;99.90
45329;DHT22;72636;48.160;11.428;2024-03-06T07:16:44;6.50;99.90
45329;DHT22;72636;48.160;11.428;2024-03-06T07:19:10;6.50;99.90
45329;DHT22;72636;48.160;11.428;2024-03-06T07:21:36;6.50;99.90
45329;DHT22;72636;48.160;11.428;2024-03-06T07:24:03;6.40;99.90
45329;DHT22;72636;48.160;11.428;2024-03-06T07:26:29;6.40;99.90
45329;DHT22;72636;48.160;11.428;2024-03-06T07:28:56;6.40;99.90
45329;DHT22;72636;48.160;11.428;2024-03-06T07:31:21;6.40;99.90
45329;DHT22;72636;48.160;11.428;2024-03-06T07:33:47;6.40;99.90
45329;DHT22;72636;48.160;11.428;2024-03-06T07:36:12;6.40;99.90
45329;DHT22;72636;48.160;11.428;2024-03-06T07:38:38;6.40;99.90
45329;DHT22;72636;48.160;11.428;2024-03-06T07:41:04;6.40;99.90
45329;DHT22;72636;48.160;11.428;2024-03-06T07:43:29;6.40;99.90
45329;DHT22;72636;48.160;11.428;2024-03-06T07:45:55;6.40;99.90
45329;DHT22;72636;48.160;11.428;2024-03-06T07:48:21;6.40;99.90
45329;DHT22;72636;48.160;11.428;2024-03-06T07:50:46;6.30;99.90
45329;DHT22;72636;48.160;11.428;2024-03-06T07:53:12;6.30;99.90
45329;DHT22;72636;48.160;11.428;2024-03-06T07:55:38;6.30;99.90
45329;DHT22;72636;48.160;11.428;2024-03-06T07:58:04;6.30;99.90
45329;DHT22;72636;48.160;11.428;2024-03-06T08:00:30;6.30;99.90
45329;DHT22;72636;48.160;11.428;2024-03-06T08:02:57;6.30;99.90
45329;DHT22;72636;48.160;11.428;2024-03-06T08:05:22;6.30;99.90
45329;DHT22;72636;48.160;11.428;2024-03-06T08:07:48;6.20;99.90
45329;DHT22;72636;48.160;11.428;2024-03-06T08:10:14;6.20;99.90
45329;DHT22;72636;48.160;11.428;2024-03-06T08:12:41;6.10;99.90
45329;DHT22;72636;48.160;11.428;2024-03-06T08:15:09;6.10;99.90
45329;DHT22;72636;48.160;11.428;2024-03-06T08:17:36;6.10;99.90
45329;DHT22;72636;48.160;11.428;2024-03-06T08:20:02;6.10;99.90
45329;DHT22;72636;48.160;11.428;2024-03-06T08:22:39;6.10;99.90
45329;DHT22;72636;48.160;11.428;2024-03-06T08:27:31;6.10;99.90
45329;DHT22;72636;48.160;11.428;2024-03-06T08:29:57;6.20;99.90
45329;DHT22;72636;48.160;11.428;2024-03-06T08:32:23;6.20;99.90
45329;DHT22;72636;48.160;11.428;2024-03-06T08:34:48;6.20;99.90
45329;DHT22;72636;48.160;11.428;2024-03-06T08:37:14;6.20;99.90
45329;DHT22;72636;48.160;11.428;2024-03-06T08:39:39;6.20;99.90
45329;DHT22;72636;48.160;11.428;2024-03-06T08:42:05;6.30;99.90
45329;DHT22;72636;48.160;11.428;2024-03-06T08:44:31;6.30;99.90
45329;DHT22;72636;48.160;11.428;2024-03-06T08:46:56;6.30;99.90
45329;DHT22;72636;48.160;11.428;2024-03-06T08:49:22;6.30;99.90
45329;DHT22;72636;48.160;11.428;2024-03-06T08:51:48;6.30;99.90
45329;DHT22;72636;48.160;11.428;2024-03-06T08:54:14;6.30;99.90
45329;DHT22;72636;48.160;11.428;2024-03-06T08:56:39;6.30;99.90
45329;DHT22;72636;48.160;11.428;2024-03-06T08:59:05;6.40;99.90
45329;DHT22;72636;48.160;11.428;2024-03-06T09:01:31;6.40;99.90
45329;DHT22;72636;48.160;11.428;2024-03-06T09:03:56;6.40;99.90
45329;DHT22;72636;48.160;11.428;2024-03-06T09:06:23;6.40;99.90
45329;DHT22;72636;48.160;11.428;2024-03-06T09:08:48;6.50;99.90
45329;DHT22;72636;48.160;11.428;2024-03-06T09:11:14;6.50;99.90
45329;DHT22;72636;48.160;11.428;2024-03-06T09:13:40;6.50;99.90
45329;DHT22;72636;48.160;11.428;2024-03-06T09:16:06;6.50;99.90
45329;DHT22;72636;48.160;11.428;2024-03-06T09:18:31;6.50;99.90
45329;DHT22;72636;48.160;11.428;2024-03-06T09:20:57;6.50;99.90
45329;DHT22;72636;48.160;11.428;2024-03-06T09:23:23;6.50;99.90
45329;DHT22;72636;48.160;11.428;2024-03-06T09:25:48;6.50;99.90
45329;DHT22;72636;48.160;11.428;2024-03-06T09:28:14;6.50;99.90
45329;DHT22;72636;48.160;11.428;2024-03-06T09:30:40;6.50;99.90
45329;DHT22;72636;48.160;11.428;2024-03-06T09:33:07;6.50;99.90
45329;DHT22;72636;48.160;11.428;2024-03-06T09:35:32;6.50;99.90
45329;DHT22;72636;48.160;11.428;2024-03-06T09:37:58;6.50;99.90
45329;DHT22;72636;48.160;11.428;2024-03-06T09:40:24;6.50;99.90
45329;DHT22;72636;48.160;11.428;2024-03-06T09:42:50;6.50;99.90
45329;DHT22;72636;48.160;11.428;2024-03-06T09:45:17;6.50;99.90
45329;DHT22;72636;48.160;11.428;2024-03-06T09:47:43;6.60;99.90
45329;DHT22;72636;48.160;11.428;2024-03-06T09:50:10;6.50;99.90
45329;DHT22;72636;48.160;11.428;2024-03-06T09:52:36;6.50;99.90
45329;DHT22;72636;48.160;11.428;2024-03-06T09:55:04;6.50;99.90
45329;DHT22;72636;48.160;11.428;2024-03-06T09:57:30;6.50;99.90
45329;DHT22;72636;48.160;11.428;2024-03-06T09:59:56;6.60;99.90
45329;DHT22;72636;48.160;11.428;2024-03-06T10:02:37;6.70;99.90
45329;DHT22;72636;48.160;11.428;2024-03-06T10:05:04;6.70;99.90
45329;DHT22;72636;48.160;11.428;2024-03-06T10:07:31;6.70;99.90
45329;DHT22;72636;48.160;11.428;2024-03-06T10:09:57;6.80;99.90
45329;DHT22;72636;48.160;11.428;2024-03-06T10:12:22;6.80;99.90
45329;DHT22;72636;48.160;11.428;2024-03-06T10:14:51;6.80;99.90
45329;DHT22;72636;48.160;11.428;2024-03-06T10:17:21;6.90;99.90
45329;DHT22;72636;48.160;11.428;2024-03-06T10:19:52;7.00;99.90
45329;DHT22;72636;48.160;11.428;2024-03-06T10:22:19;7.00;99.90
45329;DHT22;72636;48.160;11.428;2024-03-06T10:24:46;7.00;99.90
45329;DHT22;72636;48.160;11.428;2024-03-06T10:27:16;7.00;99.90
45329;DHT22;72636;48.160;11.428;2024-03-06T10:29:42;7.00;99.90
45329;DHT22;72636;48.160;11.428;2024-03-06T10:32:08;7.00;99.90
45329;DHT22;72636;48.160;11.428;2024-03-06T10:34:36;7.10;99.90
45329;DHT22;72636;48.160;11.428;2024-03-06T10:37:03;7.10;99.90
45329;DHT22;72636;48.160;11.428;2024-03-06T10:39:30;7.00;99.90
45329;DHT22;72636;48.160;11.428;2024-03-06T10:42:02;7.00;99.90
45329;DHT22;72636;48.160;11.428;2024-03-06T10:44:31;7.10;99.90
45329;DHT22;72636;48.160;11.428;2024-03-06T10:46:59;7.10;99.90
45329;DHT22;72636;48.160;11.428;2024-03-06T10:49:26;7.10;99.90
45329;DHT22;72636;48.160;11.428;2024-03-06T10:52:02;7.10;99.90
45329;DHT22;72636;48.160;11.428;2024-03-06T10:54:33;7.10;99.90
45329;DHT22;72636;48.160;11.428;2024-03-06T10:57:04;7.10;99.90
45329;DHT22;72636;48.160;11.428;2024-03-06T10:59:30;7.20;99.90
45329;DHT22;72636;48.160;11.428;2024-03-06T11:01:56;7.20;99.90
45329;DHT22;72636;48.160;11.428;2024-03-06T11:04:26;7.20;99.90
45329;DHT22;72636;48.160;11.428;2024-03-06T11:07:00;7.20;99.90
45329;DHT22;72636;48.160;11.428;2024-03-06T11:09:35;7.20;99.90
45329;DHT22;72636;48.160;11.428;2024-03-06T11:12:01;7.20;99.90
45329;DHT22;72636;48.160;11.428;2024-03-06T11:14:31;7.20;99.90
45329;DHT22;72636;48.160;11.428;2024-03-06T11:17:06;7.20;99.90
45329;DHT22;72636;48.160;11.428;2024-03-06T11:28:24;7.40;99.90
45329;DHT22;72636;48.160;11.428;2024-03-06T11:31:03;7.40;99.90
45329;DHT22;72636;48.160;11.428;2024-03-06T11:33:46;7.40;99.90
45329;DHT22;72636;48.160;11.428;2024-03-06T11:39:06;7.40;99.90
45329;DHT22;72636;48.160;11.428;2024-03-06T11:44:21;7.40;99.90
45329;DHT22;72636;48.160;11.428;2024-03-06T11:46:50;7.40;99.90
45329;DHT22;72636;48.160;11.428;2024-03-06T11:49:26;7.40;99.90
45329;DHT22;72636;48.160;11.428;2024-03-06T11:52:08;7.40;99.90
45329;DHT22;72636;48.160;11.428;2024-03-06T11:54:34;7.40;99.90
45329;DHT22;72636;48.160;11.428;2024-03-06T11:57:02;7.40;99.90
45329;DHT22;72636;48.160;11.428;2024-03-06T11:59:31;7.30;99.90
45329;DHT22;72636;48.160;11.428;2024-03-06T12:01:59;7.30;99.90
45329;DHT22;72636;48.160;11.428;2024-03-06T12:04:28;7.30;99.90
45329;DHT22;72636;48.160;11.428;2024-03-06T12:06:58;7.30;99.90
45329;DHT22;72636;48.160;11.428;2024-03-06T12:09:25;7.30;99.90
45329;DHT22;72636;48.160;11.428;2024-03-06T12:11:52;7.40;99.90
45329;DHT22;72636;48.160;11.428;2024-03-06T12:14:19;7.30;99.90
45329;DHT22;72636;48.160;11.428;2024-03-06T12:16:58;7.30;99.90
45329;DHT22;72636;48.160;11.428;2024-03-06T12:19:27;7.30;99.90
45329;DHT22;72636;48.160;11.428;2024-03-06T12:21:53;7.30;99.90
45329;DHT22;72636;48.160;11.428;2024-03-06T12:24:19;7.30;99.90
45329;DHT22;72636;48.160;11.428;2024-03-06T12:26:46;7.20;99.90
45329;DHT22;72636;48.160;11.428;2024-03-06T12:29:18;7.20;99.90
45329;DHT22;72636;48.160;11.428;2024-03-06T12:31:45;7.20;99.90
45329;DHT22;72636;48.160;11.428;2024-03-06T12:34:14;7.20;99.90
45329;DHT22;72636;48.160;11.428;2024-03-06T12:36:42;7.20;99.90
45329;DHT22;72636;48.160;11.428;2024-03-06T12:39:08;7.30;99.90
45329;DHT22;72636;48.160;11.428;2024-03-06T12:41:41;7.30;99.90
45329;DHT22;72636;48.160;11.428;2024-03-06T12:44:07;7.30;99.90
45329;DHT22;72636;48.160;11.428;2024-03-06T12:46:33;7.30;99.90
45329;DHT22;72636;48.160;11.428;2024-03-06T12:48:59;7.20;99.90
45329;DHT22;72636;48.160;11.428;2024-03-06T12:51:24;7.20;99.90
45329;DHT22;72636;48.160;11.428;2024-03-06T12:53:50;7.20;99.90
45329;DHT22;72636;48.160;11.428;2024-03-06T12:56:17;7.30;99.90
45329;DHT22;72636;48.160;11.428;2024-03-06T12:58:42;7.30;99.90
45329;DHT22;72636;48.160;11.428;2024-03-06T13:01:08;7.30;99.90
45329;DHT22;72636;48.160;11.428;2024-03-06T13:03:36;7.30;99.90
45329;DHT22;72636;48.160;11.428;2024-03-06T13:06:02;7.30;99.90
45329;DHT22;72636;48.160;11.428;2024-03-06T13:08:29;7.30;99.90
45329;DHT22;72636;48.160;11.428;2024-03-06T13:10:55;7.30;99.90
45329;DHT22;72636;48.160;11.428;2024-03-06T13:13:22;7.30;99.90
45329;DHT22;72636;48.160;11.428;2024-03-06T13:15:49;7.30;99.90
45329;DHT22;72636;48.160;11.428;2024-03-06T13:18:15;7.30;99.90
45329;DHT22;72636;48.160;11.428;2024-03-06T13:20:42;7.30;99.90
45329;DHT22;72636;48.160;11.428;2024-03-06T13:23:08;7.30;99.90
45329;DHT22;72636;48.160;11.428;2024-03-06T13:25:33;7.30;99.90
45329;DHT22;72636;48.160;11.428;2024-03-06T13:27:59;7.30;99.90
45329;DHT22;72636;48.160;11.428;2024-03-06T13:30:25;7.30;99.90
45329;DHT22;72636;48.160;11.428;2024-03-06T13:32:51;7.30;99.90
45329;DHT22;72636;48.160;11.428;2024-03-06T13:35:17;7.30;99.90
45329;DHT22;72636;48.160;11.428;2024-03-06T13:37:43;7.20;99.90
45329;DHT22;72636;48.160;11.428;2024-03-06T13:40:09;7.20;99.90
45329;DHT22;72636;48.160;11.428;2024-03-06T13:42:38;7.20;99.90
45329;DHT22;72636;48.160;11.428;2024-03-06T13:45:04;7.20;99.90
45329;DHT22;72636;48.160;11.428;2024-03-06T13:47:31;7.20;99.90
45329;DHT22;72636;48.160;11.428;2024-03-06T13:49:56;7.10;99.90
45329;DHT22;72636;48.160;11.428;2024-03-06T13:52:22;7.10;99.90
45329;DHT22;72636;48.160;11.428;2024-03-06T13:54:49;7.00;99.90
45329;DHT22;72636;48.160;11.428;2024-03-06T13:57:23;7.10;99.90
45329;DHT22;72636;48.160;11.428;2024-03-06T13:59:48;7.10;99.90
45329;DHT22;72636;48.160;11.428;2024-03-06T14:02:15;7.10;99.90
45329;DHT22;72636;48.160;11.428;2024-03-06T14:04:41;7.10;99.90
45329;DHT22;72636;48.160;11.428;2024-03-06T14:07:07;7.10;99.90
45329;DHT22;72636;48.160;11.428;2024-03-06T14:09:32;7.10;99.90
45329;DHT22;72636;48.160;11.428;2024-03-06T14:11:58;7.10;99.90
45329;DHT22;72636;48.160;11.428;2024-03-06T14:14:24;7.10;99.90
45329;DHT22;72636;48.160;11.428;2024-03-06T14:16:50;7.10;99.90
45329;DHT22;72636;48.160;11.428;2024-03-06T14:19:15;7.10;99.90
45329;DHT22;72636;48.160;11.428;2024-03-06T14:21:41;7.10;99.90
45329;DHT22;72636;48.160;11.428;2024-03-06T14:24:07;7.10;99.90
45329;DHT22;72636;48.160;11.428;2024-03-06T14:26:33;7.10;99.90
45329;DHT22;72636;48.160;11.428;2024-03-06T14:29:00;7.10;99.90
45329;DHT22;72636;48.160;11.428;2024-03-06T14:31:27;7.10;99.90
45329;DHT22;72636;48.160;11.428;2024-03-06T14:33:53;7.10;99.90
45329;DHT22;72636;48.160;11.428;2024-03-06T14:36:19;7.10;99.90
45329;DHT22;72636;48.160;11.428;2024-03-06T14:38:47;7.10;99.90
45329;DHT22;72636;48.160;11.428;2024-03-06T14:41:13;7.10;99.90
45329;DHT22;72636;48.160;11.428;2024-03-06T14:43:38;7.10;99.90
45329;DHT22;72636;48.160;11.428;2024-03-06T14:46:07;7.10;99.90
45329;DHT22;72636;48.160;11.428;2024-03-06T14:48:34;7.00;99.90
45329;DHT22;72636;48.160;11.428;2024-03-06T14:51:01;7.00;99.90
45329;DHT22;72636;48.160;11.428;2024-03-06T14:53:26;7.00;99.90
45329;DHT22;72636;48.160;11.428;2024-03-06T14:55:52;7.00;99.90
45329;DHT22;72636;48.160;11.428;2024-03-06T14:58:19;7.00;99.90
45329;DHT22;72636;48.160;11.428;2024-03-06T15:00:44;6.90;99.90
45329;DHT22;72636;48.160;11.428;2024-03-06T15:03:10;6.90;99.90
45329;DHT22;72636;48.160;11.428;2024-03-06T15:05:36;6.90;99.90
45329;DHT22;72636;48.160;11.428;2024-03-06T15:08:02;6.90;99.90
45329;DHT22;72636;48.160;11.428;2024-03-06T15:10:30;6.90;99.90
45329;DHT22;72636;48.160;11.428;2024-03-06T15:12:57;6.90;99.90
45329;DHT22;72636;48.160;11.428;2024-03-06T15:15:23;6.90;99.90
45329;DHT22;72636;48.160;11.428;2024-03-06T15:17:48;6.90;99.90
45329;DHT22;72636;48.160;11.428;2024-03-06T15:20:14;6.90;99.90
45329;DHT22;72636;48.160;11.428;2024-03-06T15:22:40;6.90;99.90
45329;DHT22;72636;48.160;11.428;2024-03-06T15:25:09;6.90;99.90
45329;DHT22;72636;48.160;11.428;2024-03-06T15:27:36;6.90;99.90
45329;DHT22;72636;48.160;11.428;2024-03-06T15:30:02;6.90;99.90
45329;DHT22;72636;48.160;11.428;2024-03-06T15:32:28;6.90;99.90
45329;DHT22;72636;48.160;11.428;2024-03-06T15:34:54;6.90;99.90
45329;DHT22;72636;48.160;11.428;2024-03-06T15:37:22;6.90;99.90
45329;DHT22;72636;48.160;11.428;2024-03-06T15:39:54;6.90;99.90
45329;DHT22;72636;48.160;11.428;2024-03-06T15:42:23;6.90;99.90
45329;DHT22;72636;48.160;11.428;2024-03-06T15:44:50;7.00;99.90